Flight Track Log - Related Links

Times and Time Zones

All times are in EDT time to prevent confusion due to time zone crossing. See the N163CA flight status page for this flight to view local times or setup timezone preferences in your user account.

Time Position Orientation Groundspeed Altitude Reporting Facility
EDT Latitude Longitude Course Direction KTS MPH feet Rate Location/Type
Sun 09:49:58 PM 28.7833 -81.1667 141° Southeast 83 96 2,300  Level Orlando TRACON
Sun 09:50:58 PM 28.7667 -81.1333 120° Southeast 98 113 3,000 650 Climbing Orlando TRACON
Sun 09:51:58 PM 28.7333 -81.1167 156° South 98 113 3,600 650 Climbing Orlando TRACON
Sun 09:52:58 PM 28.7167 -81.1000 139° Southeast 101 116 4,300 684 Climbing Orlando TRACON
Sun 09:53:52 PM 28.7000 -81.0833 139° Southeast 96 110 4,900 579 Climbing Orlando TRACON
Sun 09:54:52 PM 28.6667 -81.0667 156° South 101 116 5,400 333 Climbing Orlando TRACON
Sun 09:55:00 PM 28.6161 -81.5192 141° Southeast  Level Estimated
Sun 09:55:40 PM 28.6500 -81.0667 180° South 105 121 5,500  Level Orlando TRACON
Sun 09:56:40 PM 28.6333 -81.0333 120° Southeast 105 121 5,500  Level Orlando TRACON
Sun 09:57:40 PM 28.6000 -81.0333 180° South 103 119 5,500  Level Orlando TRACON
Sun 09:58:40 PM 28.5833 -81.0000 120° Southeast 107 123 5,500  Level Orlando TRACON
Sun 09:59:40 PM 28.5500 -80.9833 156° South 123 142 5,500  Level Orlando TRACON
Sun 10:00:40 PM 28.5167 -80.9667 156° South 123 142 5,500  Level Orlando TRACON
Sun 10:01:40 PM 28.5000 -80.9333 120° Southeast 121 139 5,500  Level Orlando TRACON
Sun 10:02:40 PM 28.4667 -80.9167 156° South 119 137 5,500 50 Level Orlando TRACON
Sun 10:03:40 PM 28.4500 -80.9000 139° Southeast 119 137 5,600  Climbing Orlando TRACON
Sun 10:05:42 PM 28.3892 -80.8494 144° Southeast 125 144 5,500 -33 Descending Miami Center
Sun 10:06:43 PM 28.3647 -80.8250 139° Southeast 125 144 5,500  Level Miami Center
Sun 10:07:43 PM 28.3444 -80.8031 136° Southeast 117 135 5,500 50 Level Miami Center
Sun 10:08:43 PM 28.3161 -80.7761 140° Southeast 117 135 5,600 -50 Climbing Miami Center
Sun 10:09:42 PM 28.2853 -80.7561 150° Southeast 117 135 5,400 -100 Descending Miami Center
Sun 10:10:43 PM 28.2567 -80.7339 146° Southeast 122 140 5,400  Level Miami Center
Sun 10:11:43 PM 28.2258 -80.7186 156° South 122 140 5,400  Level Miami Center
Sun 10:12:44 PM 28.2033 -80.6992 143° Southeast 115 132 5,400 50 Level Miami Center
Sun 10:13:42 PM 28.1725 -80.6792 150° Southeast 115 132 5,500 50 Climbing Miami Center
Sun 10:14:43 PM 28.1419 -80.6569 147° Southeast 115 132 5,500  Level Miami Center
Sun 10:15:43 PM 28.1133 -80.6372 149° Southeast 120 138 5,500 -50 Level Miami Center
Sun 10:16:44 PM 28.0803 -80.6219 158° South 126 145 5,400 -50 Descending Miami Center
Sun 10:17:43 PM 28.0514 -80.6117 163° South 126 145 5,400 100 Level Miami Center
Sun 10:18:44 PM 28.0183 -80.5964 158° South 126 145 5,600 50 Climbing Miami Center
Sun 10:19:42 PM 27.9875 -80.5742 148° Southeast 126 145 5,500 -100 Descending Miami Center
Sun 10:20:44 PM 27.9567 -80.5544 151° Southeast 126 145 5,400  Descending Miami Center
Sun 10:21:44 PM 27.9278 -80.5417 159° South 126 145 5,500 51 Climbing Miami Center
Sun 10:22:42 PM 27.8947 -80.5267 158° South 132 152 5,500  Level Miami Center
Sun 10:23:42 PM 27.8597 -80.5089 156° South 132 152 5,500  Level Miami Center
Sun 10:24:44 PM 27.8289 -80.4939 157° South 132 152 5,500  Level Miami Center
Sun 10:25:42 PM 27.7981 -80.4764 153° Southeast 132 152 5,500  Level Miami Center
Sun 10:26:43 PM 27.7692 -80.4614 155° Southeast 132 152 5,500  Level Miami Center
Sun 10:27:44 PM 27.7361 -80.4486 161° South 132 152 5,500  Level Miami Center
Sun 10:28:42 PM 27.7008 -80.4336 159° South 132 152 5,500  Level Miami Center
Sun 10:29:43 PM 27.6658 -80.4183 159° South 132 152 5,500  Level Miami Center
Sun 10:30:44 PM 27.6328 -80.4081 165° South 127 146 5,500  Level Miami Center
Sun 10:31:42 PM 27.6017 -80.4000 167° South 127 146 5,500  Level Miami Center
Sun 10:32:42 PM 27.5683 -80.3894 164° South 127 146 5,500  Level Miami Center
Sun 10:33:42 PM 27.5311 -80.3744 160° South 127 146 5,500  Level Miami Center
Sun 10:34:43 PM 27.5003 -80.3547 150° Southeast 127 146 5,500  Level Miami Center
Sun 10:35:42 PM 27.4672 -80.3444 165° South 132 152 5,500  Level Miami Center
Sun 10:36:43 PM 27.4383 -80.3294 155° Southeast 132 152 5,500  Level Miami Center
Sun 10:37:42 PM 27.4053 -80.3144 158° South 132 152 5,500  Level Miami Center
Sun 10:38:44 PM 27.3725 -80.2947 152° Southeast 132 152 5,500 -50 Level Miami Center
Sun 10:39:42 PM 27.3372 -80.2819 162° South 132 152 5,400 -305 Descending Miami Center
Sun 10:40:42 PM 27.3061 -80.2717 164° South 127 146 4,900 -744 Descending Miami Center
Sun 10:41:43 PM 27.2750 -80.2567 157° South 127 146 3,900 -650 Descending Miami Center
Sun 10:42:42 PM 27.2442 -80.2442 160° South 120 138 3,600 807 Descending Miami Center
Sun 10:43:42 PM 27.2131 -80.2317 160° South 120 138 5,500 950 Climbing Miami Center
Sun 10:44:42 PM 27.1819 -80.2189 160° South 120 138 5,500  Level Miami Center
Sun 10:45:43 PM 27.1758 -80.2164 160° South 120 138 5,500  Level Miami Center
Sun 10:48:00 PM 27.1667 -80.2167 270° West  Level FlightAware Approximate
Sun 10:55:00 PM 27.1817 -80.2213 270° West  Level Estimated
Sun 10:56:00 PM 27.1817 -80.2213 270° West  Level Estimated
Sun 10:57:00 PM 27.1817 -80.2213 270° West  Level Estimated
Sun 10:58:00 PM 27.1817 -80.2213 270° West  Level Estimated
Sun 10:59:00 PM 27.1817 -80.2213 270° West  Level Estimated
Sun 11:00:00 PM 27.1817 -80.2213 270° West  Level Estimated
Sun 11:01:00 PM 27.1817 -80.2213 270° West  Level Estimated

Login

Don't have an account? Register now (free) for customized features, flight alerts, and more!